sensor_id;sensor_type;location;lat;lon;timestamp;P1;durP1;ratioP1;P2;durP2;ratioP2
52838;SDS011;39219;53.678;9.856;2023-05-06T00:02:04;12.93;;;5.32;;
52838;SDS011;39219;53.678;9.856;2023-05-06T00:04:31;11.20;;;5.20;;
52838;SDS011;39219;53.678;9.856;2023-05-06T00:06:58;12.07;;;5.35;;
52838;SDS011;39219;53.678;9.856;2023-05-06T00:09:24;12.77;;;5.38;;
52838;SDS011;39219;53.678;9.856;2023-05-06T00:11:51;11.02;;;5.07;;
52838;SDS011;39219;53.678;9.856;2023-05-06T00:14:19;12.80;;;5.45;;
52838;SDS011;39219;53.678;9.856;2023-05-06T00:16:46;12.43;;;5.30;;
52838;SDS011;39219;53.678;9.856;2023-05-06T00:19:14;11.02;;;4.85;;
52838;SDS011;39219;53.678;9.856;2023-05-06T00:21:41;10.77;;;4.70;;
52838;SDS011;39219;53.678;9.856;2023-05-06T00:24:08;10.38;;;4.75;;
52838;SDS011;39219;53.678;9.856;2023-05-06T00:26:35;12.02;;;5.30;;
52838;SDS011;39219;53.678;9.856;2023-05-06T00:29:01;11.73;;;4.95;;
52838;SDS011;39219;53.678;9.856;2023-05-06T00:31:29;14.02;;;5.75;;
52838;SDS011;39219;53.678;9.856;2023-05-06T00:33:55;12.85;;;5.60;;
52838;SDS011;39219;53.678;9.856;2023-05-06T00:36:22;13.68;;;5.97;;
52838;SDS011;39219;53.678;9.856;2023-05-06T00:38:48;13.10;;;5.25;;
52838;SDS011;39219;53.678;9.856;2023-05-06T00:41:15;10.55;;;4.80;;
52838;SDS011;39219;53.678;9.856;2023-05-06T00:43:41;10.98;;;4.90;;
52838;SDS011;39219;53.678;9.856;2023-05-06T00:46:08;9.93;;;4.95;;
52838;SDS011;39219;53.678;9.856;2023-05-06T00:48:37;13.00;;;5.25;;
52838;SDS011;39219;53.678;9.856;2023-05-06T00:51:04;13.93;;;5.65;;
52838;SDS011;39219;53.678;9.856;2023-05-06T00:53:31;12.65;;;5.40;;
52838;SDS011;39219;53.678;9.856;2023-05-06T00:55:59;10.50;;;5.03;;
52838;SDS011;39219;53.678;9.856;2023-05-06T00:58:25;12.23;;;5.15;;
52838;SDS011;39219;53.678;9.856;2023-05-06T01:00:52;13.90;;;4.80;;
52838;SDS011;39219;53.678;9.856;2023-05-06T01:03:21;13.63;;;5.20;;
52838;SDS011;39219;53.678;9.856;2023-05-06T01:05:54;12.20;;;5.20;;
52838;SDS011;39219;53.678;9.856;2023-05-06T01:08:31;13.70;;;5.00;;
52838;SDS011;39219;53.678;9.856;2023-05-06T01:11:01;10.07;;;4.80;;
52838;SDS011;39219;53.678;9.856;2023-05-06T01:13:33;10.52;;;5.20;;
52838;SDS011;39219;53.678;9.856;2023-05-06T01:16:08;10.85;;;5.22;;
52838;SDS011;39219;53.678;9.856;2023-05-06T01:18:37;12.95;;;5.57;;
52838;SDS011;39219;53.678;9.856;2023-05-06T01:21:07;12.90;;;5.63;;
52838;SDS011;39219;53.678;9.856;2023-05-06T01:23:51;12.63;;;5.40;;
52838;SDS011;39219;53.678;9.856;2023-05-06T01:26:19;10.35;;;4.97;;
52838;SDS011;39219;53.678;9.856;2023-05-06T01:28:46;11.13;;;5.10;;
52838;SDS011;39219;53.678;9.856;2023-05-06T01:31:14;11.05;;;5.32;;
52838;SDS011;39219;53.678;9.856;2023-05-06T01:33:49;12.85;;;5.45;;
52838;SDS011;39219;53.678;9.856;2023-05-06T01:36:25;14.27;;;5.38;;
52838;SDS011;39219;53.678;9.856;2023-05-06T01:39:00;13.15;;;5.70;;
52838;SDS011;39219;53.678;9.856;2023-05-06T01:41:33;13.15;;;5.90;;
52838;SDS011;39219;53.678;9.856;2023-05-06T01:44:03;14.95;;;5.70;;
52838;SDS011;39219;53.678;9.856;2023-05-06T01:46:32;10.05;;;5.20;;
52838;SDS011;39219;53.678;9.856;2023-05-06T01:49:00;11.48;;;5.97;;
52838;SDS011;39219;53.678;9.856;2023-05-06T01:51:30;12.20;;;5.25;;
52838;SDS011;39219;53.678;9.856;2023-05-06T01:53:58;10.98;;;5.65;;
52838;SDS011;39219;53.678;9.856;2023-05-06T01:56:26;13.88;;;5.97;;
52838;SDS011;39219;53.678;9.856;2023-05-06T01:58:54;10.93;;;5.65;;
52838;SDS011;39219;53.678;9.856;2023-05-06T02:01:20;13.90;;;5.85;;
52838;SDS011;39219;53.678;9.856;2023-05-06T02:03:47;13.27;;;6.00;;
52838;SDS011;39219;53.678;9.856;2023-05-06T02:06:13;12.55;;;6.22;;
52838;SDS011;39219;53.678;9.856;2023-05-06T02:08:40;14.95;;;6.22;;
52838;SDS011;39219;53.678;9.856;2023-05-06T02:11:08;12.25;;;6.03;;
52838;SDS011;39219;53.678;9.856;2023-05-06T02:13:34;12.20;;;6.28;;
52838;SDS011;39219;53.678;9.856;2023-05-06T02:16:01;14.23;;;6.20;;
52838;SDS011;39219;53.678;9.856;2023-05-06T02:18:27;11.05;;;5.88;;
52838;SDS011;39219;53.678;9.856;2023-05-06T02:20:54;12.18;;;6.07;;
52838;SDS011;39219;53.678;9.856;2023-05-06T02:23:20;11.93;;;5.72;;
52838;SDS011;39219;53.678;9.856;2023-05-06T02:25:47;12.63;;;6.25;;
52838;SDS011;39219;53.678;9.856;2023-05-06T02:28:15;11.40;;;6.30;;
52838;SDS011;39219;53.678;9.856;2023-05-06T02:30:42;12.05;;;7.00;;
52838;SDS011;39219;53.678;9.856;2023-05-06T02:33:08;14.18;;;6.68;;
52838;SDS011;39219;53.678;9.856;2023-05-06T02:35:35;15.25;;;6.85;;
52838;SDS011;39219;53.678;9.856;2023-05-06T02:38:01;15.20;;;6.82;;
52838;SDS011;39219;53.678;9.856;2023-05-06T02:40:28;12.40;;;6.25;;
52838;SDS011;39219;53.678;9.856;2023-05-06T02:42:54;13.82;;;6.22;;
52838;SDS011;39219;53.678;9.856;2023-05-06T02:45:22;14.55;;;6.60;;
52838;SDS011;39219;53.678;9.856;2023-05-06T02:47:49;12.05;;;6.03;;
52838;SDS011;39219;53.678;9.856;2023-05-06T02:50:15;13.57;;;6.90;;
52838;SDS011;39219;53.678;9.856;2023-05-06T02:52:42;13.00;;;6.18;;
52838;SDS011;39219;53.678;9.856;2023-05-06T02:55:08;15.73;;;7.07;;
52838;SDS011;39219;53.678;9.856;2023-05-06T02:57:35;16.58;;;7.00;;
52838;SDS011;39219;53.678;9.856;2023-05-06T03:00:02;15.20;;;6.82;;
52838;SDS011;39219;53.678;9.856;2023-05-06T03:02:31;16.15;;;6.97;;
52838;SDS011;39219;53.678;9.856;2023-05-06T03:04:57;10.98;;;6.57;;
52838;SDS011;39219;53.678;9.856;2023-05-06T03:07:24;14.63;;;6.68;;
52838;SDS011;39219;53.678;9.856;2023-05-06T03:09:50;14.82;;;7.40;;
52838;SDS011;39219;53.678;9.856;2023-05-06T03:12:17;13.75;;;7.13;;
52838;SDS011;39219;53.678;9.856;2023-05-06T03:14:43;15.98;;;7.15;;
52838;SDS011;39219;53.678;9.856;2023-05-06T03:17:10;13.25;;;6.47;;
52838;SDS011;39219;53.678;9.856;2023-05-06T03:19:38;14.38;;;6.63;;
52838;SDS011;39219;53.678;9.856;2023-05-06T03:22:04;13.93;;;6.80;;
52838;SDS011;39219;53.678;9.856;2023-05-06T03:24:30;13.02;;;6.90;;
52838;SDS011;39219;53.678;9.856;2023-05-06T03:26:57;12.75;;;6.72;;
52838;SDS011;39219;53.678;9.856;2023-05-06T03:29:23;14.07;;;7.28;;
52838;SDS011;39219;53.678;9.856;2023-05-06T03:31:50;13.15;;;6.95;;
52838;SDS011;39219;53.678;9.856;2023-05-06T03:34:16;12.20;;;6.63;;
52838;SDS011;39219;53.678;9.856;2023-05-06T03:39:12;14.20;;;6.60;;
52838;SDS011;39219;53.678;9.856;2023-05-06T03:41:39;12.80;;;6.75;;
52838;SDS011;39219;53.678;9.856;2023-05-06T03:44:05;12.40;;;7.20;;
52838;SDS011;39219;53.678;9.856;2023-05-06T03:46:32;13.50;;;6.63;;
52838;SDS011;39219;53.678;9.856;2023-05-06T03:48:58;12.45;;;6.78;;
52838;SDS011;39219;53.678;9.856;2023-05-06T03:51:26;15.43;;;7.38;;
52838;SDS011;39219;53.678;9.856;2023-05-06T03:53:54;15.60;;;7.30;;
52838;SDS011;39219;53.678;9.856;2023-05-06T03:56:22;12.82;;;7.00;;
52838;SDS011;39219;53.678;9.856;2023-05-06T03:58:48;14.00;;;7.55;;
52838;SDS011;39219;53.678;9.856;2023-05-06T04:01:15;13.43;;;7.18;;
52838;SDS011;39219;53.678;9.856;2023-05-06T04:03:42;14.60;;;7.70;;
52838;SDS011;39219;53.678;9.856;2023-05-06T04:06:08;14.75;;;6.93;;
52838;SDS011;39219;53.678;9.856;2023-05-06T04:08:35;14.15;;;7.30;;
52838;SDS011;39219;53.678;9.856;2023-05-06T04:11:06;14.45;;;7.07;;
52838;SDS011;39219;53.678;9.856;2023-05-06T04:13:33;16.08;;;7.25;;
52838;SDS011;39219;53.678;9.856;2023-05-06T04:16:00;15.88;;;7.50;;
52838;SDS011;39219;53.678;9.856;2023-05-06T04:18:28;14.32;;;6.97;;
52838;SDS011;39219;53.678;9.856;2023-05-06T04:20:54;17.42;;;7.25;;
52838;SDS011;39219;53.678;9.856;2023-05-06T04:23:21;13.57;;;6.97;;
52838;SDS011;39219;53.678;9.856;2023-05-06T04:25:47;15.52;;;7.43;;
52838;SDS011;39219;53.678;9.856;2023-05-06T04:28:15;14.73;;;7.15;;
52838;SDS011;39219;53.678;9.856;2023-05-06T04:30:42;13.35;;;7.25;;
52838;SDS011;39219;53.678;9.856;2023-05-06T04:33:08;14.85;;;7.18;;
52838;SDS011;39219;53.678;9.856;2023-05-06T04:35:35;13.43;;;6.78;;
52838;SDS011;39219;53.678;9.856;2023-05-06T04:38:02;14.88;;;7.40;;
52838;SDS011;39219;53.678;9.856;2023-05-06T04:40:28;13.75;;;7.50;;
52838;SDS011;39219;53.678;9.856;2023-05-06T04:42:55;14.20;;;7.35;;
52838;SDS011;39219;53.678;9.856;2023-05-06T04:45:22;14.77;;;7.15;;
52838;SDS011;39219;53.678;9.856;2023-05-06T04:47:50;17.67;;;7.28;;
52838;SDS011;39219;53.678;9.856;2023-05-06T04:50:16;12.27;;;6.63;;
52838;SDS011;39219;53.678;9.856;2023-05-06T04:52:43;13.60;;;7.20;;
52838;SDS011;39219;53.678;9.856;2023-05-06T04:55:09;17.83;;;7.05;;
52838;SDS011;39219;53.678;9.856;2023-05-06T04:57:36;14.95;;;7.50;;
52838;SDS011;39219;53.678;9.856;2023-05-06T05:00:02;14.95;;;7.43;;
52838;SDS011;39219;53.678;9.856;2023-05-06T05:02:30;14.65;;;6.53;;
52838;SDS011;39219;53.678;9.856;2023-05-06T05:04:57;13.32;;;7.50;;
52838;SDS011;39219;53.678;9.856;2023-05-06T05:07:23;13.43;;;7.50;;
52838;SDS011;39219;53.678;9.856;2023-05-06T05:09:50;13.68;;;6.97;;
52838;SDS011;39219;53.678;9.856;2023-05-06T05:12:16;12.23;;;6.75;;
52838;SDS011;39219;53.678;9.856;2023-05-06T05:14:43;15.57;;;7.28;;
52838;SDS011;39219;53.678;9.856;2023-05-06T05:17:11;14.23;;;6.97;;
52838;SDS011;39219;53.678;9.856;2023-05-06T05:19:39;14.30;;;7.15;;
52838;SDS011;39219;53.678;9.856;2023-05-06T05:22:05;14.85;;;7.60;;
52838;SDS011;39219;53.678;9.856;2023-05-06T05:24:32;16.73;;;7.72;;
52838;SDS011;39219;53.678;9.856;2023-05-06T05:26:58;16.88;;;7.65;;
52838;SDS011;39219;53.678;9.856;2023-05-06T05:29:26;13.30;;;7.10;;
52838;SDS011;39219;53.678;9.856;2023-05-06T05:31:52;14.68;;;7.15;;
52838;SDS011;39219;53.678;9.856;2023-05-06T05:34:19;17.00;;;7.80;;
52838;SDS011;39219;53.678;9.856;2023-05-06T05:36:46;15.25;;;7.40;;
52838;SDS011;39219;53.678;9.856;2023-05-06T05:39:13;15.15;;;7.70;;
52838;SDS011;39219;53.678;9.856;2023-05-06T05:41:39;15.85;;;7.60;;
52838;SDS011;39219;53.678;9.856;2023-05-06T05:44:06;16.65;;;7.68;;
52838;SDS011;39219;53.678;9.856;2023-05-06T05:46:32;15.85;;;7.75;;
52838;SDS011;39219;53.678;9.856;2023-05-06T05:48:59;15.07;;;8.18;;
52838;SDS011;39219;53.678;9.856;2023-05-06T05:51:25;14.73;;;7.32;;
52838;SDS011;39219;53.678;9.856;2023-05-06T05:53:53;15.98;;;7.57;;
52838;SDS011;39219;53.678;9.856;2023-05-06T05:56:20;14.23;;;7.40;;
52838;SDS011;39219;53.678;9.856;2023-05-06T05:58:46;17.70;;;8.15;;
52838;SDS011;39219;53.678;9.856;2023-05-06T06:01:13;15.52;;;7.85;;
52838;SDS011;39219;53.678;9.856;2023-05-06T06:03:40;15.65;;;7.82;;
52838;SDS011;39219;53.678;9.856;2023-05-06T06:06:06;13.60;;;7.65;;
52838;SDS011;39219;53.678;9.856;2023-05-06T06:08:33;13.60;;;7.63;;
52838;SDS011;39219;53.678;9.856;2023-05-06T06:11:01;16.35;;;8.00;;
52838;SDS011;39219;53.678;9.856;2023-05-06T06:13:29;14.57;;;7.95;;
52838;SDS011;39219;53.678;9.856;2023-05-06T06:15:56;17.48;;;7.82;;
52838;SDS011;39219;53.678;9.856;2023-05-06T06:18:22;13.65;;;7.50;;
52838;SDS011;39219;53.678;9.856;2023-05-06T06:20:49;14.35;;;8.05;;
52838;SDS011;39219;53.678;9.856;2023-05-06T06:23:15;15.30;;;8.40;;
52838;SDS011;39219;53.678;9.856;2023-05-06T06:25:42;17.38;;;8.00;;
52838;SDS011;39219;53.678;9.856;2023-05-06T06:28:10;15.43;;;8.00;;
52838;SDS011;39219;53.678;9.856;2023-05-06T06:30:36;14.45;;;7.88;;
52838;SDS011;39219;53.678;9.856;2023-05-06T06:33:02;16.33;;;8.20;;
52838;SDS011;39219;53.678;9.856;2023-05-06T06:35:29;14.82;;;8.35;;
52838;SDS011;39219;53.678;9.856;2023-05-06T06:37:55;15.57;;;7.82;;
52838;SDS011;39219;53.678;9.856;2023-05-06T06:40:22;16.73;;;8.48;;
52838;SDS011;39219;53.678;9.856;2023-05-06T06:42:48;14.32;;;8.40;;
52838;SDS011;39219;53.678;9.856;2023-05-06T06:45:16;15.48;;;8.73;;
52838;SDS011;39219;53.678;9.856;2023-05-06T06:47:43;15.93;;;9.00;;
52838;SDS011;39219;53.678;9.856;2023-05-06T06:50:10;17.05;;;8.40;;
52838;SDS011;39219;53.678;9.856;2023-05-06T06:52:36;16.52;;;8.40;;
52838;SDS011;39219;53.678;9.856;2023-05-06T06:55:03;15.38;;;8.65;;
52838;SDS011;39219;53.678;9.856;2023-05-06T06:57:31;15.20;;;8.13;;
52838;SDS011;39219;53.678;9.856;2023-05-06T06:59:57;13.13;;;7.93;;
52838;SDS011;39219;53.678;9.856;2023-05-06T07:02:25;14.07;;;8.30;;
52838;SDS011;39219;53.678;9.856;2023-05-06T07:04:52;15.40;;;8.10;;
52838;SDS011;39219;53.678;9.856;2023-05-06T07:07:18;15.43;;;7.88;;
52838;SDS011;39219;53.678;9.856;2023-05-06T07:09:45;16.30;;;8.10;;
52838;SDS011;39219;53.678;9.856;2023-05-06T07:12:11;15.82;;;7.97;;
52838;SDS011;39219;53.678;9.856;2023-05-06T07:14:38;16.42;;;8.40;;
52838;SDS011;39219;53.678;9.856;2023-05-06T07:17:05;15.68;;;8.48;;
52838;SDS011;39219;53.678;9.856;2023-05-06T07:19:33;15.13;;;7.55;;
52838;SDS011;39219;53.678;9.856;2023-05-06T07:21:59;16.30;;;8.63;;
52838;SDS011;39219;53.678;9.856;2023-05-06T07:24:27;15.95;;;7.75;;
52838;SDS011;39219;53.678;9.856;2023-05-06T07:26:53;17.15;;;7.72;;
52838;SDS011;39219;53.678;9.856;2023-05-06T07:29:20;15.27;;;7.45;;
52838;SDS011;39219;53.678;9.856;2023-05-06T07:31:47;13.65;;;7.88;;
52838;SDS011;39219;53.678;9.856;2023-05-06T07:34:13;12.55;;;7.57;;
52838;SDS011;39219;53.678;9.856;2023-05-06T07:36:41;14.95;;;8.50;;
52838;SDS011;39219;53.678;9.856;2023-05-06T07:39:10;14.43;;;7.80;;
52838;SDS011;39219;53.678;9.856;2023-05-06T07:41:37;15.13;;;7.75;;
52838;SDS011;39219;53.678;9.856;2023-05-06T07:44:04;14.95;;;7.95;;
52838;SDS011;39219;53.678;9.856;2023-05-06T07:46:31;15.68;;;7.80;;
52838;SDS011;39219;53.678;9.856;2023-05-06T07:48:57;14.20;;;7.60;;
52838;SDS011;39219;53.678;9.856;2023-05-06T07:51:24;12.55;;;7.53;;
52838;SDS011;39219;53.678;9.856;2023-05-06T07:53:52;12.98;;;7.55;;
52838;SDS011;39219;53.678;9.856;2023-05-06T07:56:18;14.75;;;7.78;;
52838;SDS011;39219;53.678;9.856;2023-05-06T07:58:45;15.02;;;7.85;;
52838;SDS011;39219;53.678;9.856;2023-05-06T08:01:13;14.10;;;7.53;;
52838;SDS011;39219;53.678;9.856;2023-05-06T08:03:40;14.30;;;7.70;;
52838;SDS011;39219;53.678;9.856;2023-05-06T08:06:06;15.23;;;7.57;;
52838;SDS011;39219;53.678;9.856;2023-05-06T08:08:33;13.90;;;7.38;;
52838;SDS011;39219;53.678;9.856;2023-05-06T08:11:00;14.73;;;7.95;;
52838;SDS011;39219;53.678;9.856;2023-05-06T08:13:27;12.52;;;7.63;;
52838;SDS011;39219;53.678;9.856;2023-05-06T08:15:54;14.07;;;7.70;;
52838;SDS011;39219;53.678;9.856;2023-05-06T08:18:21;16.05;;;8.18;;
52838;SDS011;39219;53.678;9.856;2023-05-06T08:20:47;14.05;;;7.82;;
52838;SDS011;39219;53.678;9.856;2023-05-06T08:23:14;17.38;;;8.07;;
52838;SDS011;39219;53.678;9.856;2023-05-06T08:25:41;15.10;;;8.05;;
52838;SDS011;39219;53.678;9.856;2023-05-06T08:28:09;13.32;;;7.25;;
52838;SDS011;39219;53.678;9.856;2023-05-06T08:30:35;12.82;;;7.38;;
52838;SDS011;39219;53.678;9.856;2023-05-06T08:33:02;15.43;;;8.13;;
52838;SDS011;39219;53.678;9.856;2023-05-06T08:35:28;16.60;;;8.32;;
52838;SDS011;39219;53.678;9.856;2023-05-06T08:37:55;13.75;;;7.68;;
52838;SDS011;39219;53.678;9.856;2023-05-06T08:40:21;14.68;;;7.65;;
52838;SDS011;39219;53.678;9.856;2023-05-06T08:42:48;13.27;;;7.72;;
52838;SDS011;39219;53.678;9.856;2023-05-06T08:45:17;16.77;;;7.95;;
52838;SDS011;39219;53.678;9.856;2023-05-06T08:47:44;14.90;;;7.75;;
52838;SDS011;39219;53.678;9.856;2023-05-06T08:50:11;14.95;;;7.82;;
52838;SDS011;39219;53.678;9.856;2023-05-06T08:52:38;13.90;;;7.53;;
52838;SDS011;39219;53.678;9.856;2023-05-06T08:55:05;14.27;;;7.78;;
52838;SDS011;39219;53.678;9.856;2023-05-06T08:57:33;13.82;;;7.97;;
52838;SDS011;39219;53.678;9.856;2023-05-06T08:59:59;15.18;;;8.00;;
52838;SDS011;39219;53.678;9.856;2023-05-06T09:02:28;14.80;;;7.78;;
52838;SDS011;39219;53.678;9.856;2023-05-06T09:04:54;14.05;;;7.85;;
52838;SDS011;39219;53.678;9.856;2023-05-06T09:07:21;12.32;;;7.75;;
52838;SDS011;39219;53.678;9.856;2023-05-06T09:09:49;15.18;;;8.13;;
52838;SDS011;39219;53.678;9.856;2023-05-06T09:12:16;16.45;;;8.65;;
52838;SDS011;39219;53.678;9.856;2023-05-06T09:14:43;13.90;;;8.00;;
52838;SDS011;39219;53.678;9.856;2023-05-06T09:17:16;15.18;;;7.97;;
52838;SDS011;39219;53.678;9.856;2023-05-06T09:19:49;16.45;;;8.70;;
52838;SDS011;39219;53.678;9.856;2023-05-06T09:22:17;14.98;;;7.63;;
52838;SDS011;39219;53.678;9.856;2023-05-06T09:24:45;13.80;;;7.50;;
52838;SDS011;39219;53.678;9.856;2023-05-06T09:27:16;14.50;;;7.90;;
52838;SDS011;39219;53.678;9.856;2023-05-06T09:29:50;16.25;;;8.00;;
52838;SDS011;39219;53.678;9.856;2023-05-06T09:32:25;14.40;;;8.40;;
52838;SDS011;39219;53.678;9.856;2023-05-06T09:34:53;13.52;;;7.68;;
52838;SDS011;39219;53.678;9.856;2023-05-06T09:37:19;14.18;;;7.75;;
52838;SDS011;39219;53.678;9.856;2023-05-06T09:39:46;14.20;;;7.80;;
52838;SDS011;39219;53.678;9.856;2023-05-06T09:42:12;13.90;;;7.53;;
52838;SDS011;39219;53.678;9.856;2023-05-06T09:44:39;17.33;;;8.35;;
52838;SDS011;39219;53.678;9.856;2023-05-06T09:47:06;17.15;;;8.93;;
52838;SDS011;39219;53.678;9.856;2023-05-06T09:49:33;14.15;;;7.97;;
52838;SDS011;39219;53.678;9.856;2023-05-06T09:52:01;16.20;;;8.60;;
52838;SDS011;39219;53.678;9.856;2023-05-06T09:54:27;15.73;;;7.95;;
52838;SDS011;39219;53.678;9.856;2023-05-06T09:56:54;15.27;;;8.07;;
52838;SDS011;39219;53.678;9.856;2023-05-06T09:59:21;15.10;;;8.23;;
52838;SDS011;39219;53.678;9.856;2023-05-06T10:01:49;14.88;;;8.43;;
52838;SDS011;39219;53.678;9.856;2023-05-06T10:04:18;14.95;;;7.85;;
52838;SDS011;39219;53.678;9.856;2023-05-06T10:06:48;13.27;;;7.57;;
52838;SDS011;39219;53.678;9.856;2023-05-06T10:09:18;13.20;;;7.60;;
52838;SDS011;39219;53.678;9.856;2023-05-06T10:11:47;15.20;;;7.50;;
52838;SDS011;39219;53.678;9.856;2023-05-06T10:14:15;12.75;;;6.80;;
52838;SDS011;39219;53.678;9.856;2023-05-06T10:16:43;14.00;;;7.10;;
52838;SDS011;39219;53.678;9.856;2023-05-06T10:19:11;14.32;;;7.07;;
52838;SDS011;39219;53.678;9.856;2023-05-06T10:21:40;13.88;;;7.20;;
52838;SDS011;39219;53.678;9.856;2023-05-06T10:24:14;11.88;;;6.93;;
52838;SDS011;39219;53.678;9.856;2023-05-06T10:26:48;11.82;;;7.03;;
52838;SDS011;39219;53.678;9.856;2023-05-06T10:29:18;12.35;;;7.07;;
52838;SDS011;39219;53.678;9.856;2023-05-06T10:31:47;12.10;;;6.80;;
52838;SDS011;39219;53.678;9.856;2023-05-06T10:34:18;14.00;;;7.40;;
52838;SDS011;39219;53.678;9.856;2023-05-06T10:36:46;14.43;;;7.60;;
52838;SDS011;39219;53.678;9.856;2023-05-06T10:39:15;12.02;;;7.05;;
52838;SDS011;39219;53.678;9.856;2023-05-06T10:41:44;14.43;;;7.85;;
52838;SDS011;39219;53.678;9.856;2023-05-06T10:44:10;14.63;;;7.88;;
52838;SDS011;39219;53.678;9.856;2023-05-06T10:49:23;15.43;;;7.97;;
52838;SDS011;39219;53.678;9.856;2023-05-06T10:54:45;14.50;;;7.72;;
52838;SDS011;39219;53.678;9.856;2023-05-06T10:57:15;15.18;;;7.25;;
52838;SDS011;39219;53.678;9.856;2023-05-06T10:59:43;14.45;;;7.43;;
52838;SDS011;39219;53.678;9.856;2023-05-06T11:02:12;16.77;;;7.68;;
52838;SDS011;39219;53.678;9.856;2023-05-06T11:04:39;16.10;;;8.20;;
52838;SDS011;39219;53.678;9.856;2023-05-06T11:07:06;13.85;;;7.75;;
52838;SDS011;39219;53.678;9.856;2023-05-06T11:09:33;12.23;;;7.15;;
52838;SDS011;39219;53.678;9.856;2023-05-06T11:12:20;13.65;;;7.18;;
52838;SDS011;39219;53.678;9.856;2023-05-06T11:14:47;17.90;;;8.10;;
52838;SDS011;39219;53.678;9.856;2023-05-06T11:17:28;13.40;;;6.85;;
52838;SDS011;39219;53.678;9.856;2023-05-06T11:22:43;13.55;;;7.35;;
52838;SDS011;39219;53.678;9.856;2023-05-06T11:25:09;13.85;;;7.45;;
52838;SDS011;39219;53.678;9.856;2023-05-06T11:27:37;12.95;;;6.88;;
52838;SDS011;39219;53.678;9.856;2023-05-06T11:30:05;12.43;;;6.85;;
52838;SDS011;39219;53.678;9.856;2023-05-06T11:32:32;13.63;;;6.78;;
52838;SDS011;39219;53.678;9.856;2023-05-06T11:34:59;15.77;;;7.45;;
52838;SDS011;39219;53.678;9.856;2023-05-06T11:37:26;12.65;;;7.25;;
52838;SDS011;39219;53.678;9.856;2023-05-06T11:39:54;13.70;;;7.10;;
52838;SDS011;39219;53.678;9.856;2023-05-06T11:42:24;12.88;;;7.28;;
52838;SDS011;39219;53.678;9.856;2023-05-06T11:44:53;17.33;;;8.23;;
52838;SDS011;39219;53.678;9.856;2023-05-06T11:47:21;14.35;;;7.38;;
52838;SDS011;39219;53.678;9.856;2023-05-06T11:49:49;13.90;;;7.63;;
52838;SDS011;39219;53.678;9.856;2023-05-06T11:52:18;15.38;;;7.43;;
52838;SDS011;39219;53.678;9.856;2023-05-06T11:54:45;14.30;;;7.72;;
52838;SDS011;39219;53.678;9.856;2023-05-06T11:57:12;14.80;;;8.02;;
52838;SDS011;39219;53.678;9.856;2023-05-06T11:59:39;13.82;;;7.97;;
52838;SDS011;39219;53.678;9.856;2023-05-06T12:02:07;13.73;;;8.25;;
52838;SDS011;39219;53.678;9.856;2023-05-06T12:04:37;14.63;;;7.90;;
52838;SDS011;39219;53.678;9.856;2023-05-06T12:07:05;14.52;;;8.13;;
52838;SDS011;39219;53.678;9.856;2023-05-06T12:09:32;13.05;;;7.53;;
52838;SDS011;39219;53.678;9.856;2023-05-06T12:12:00;14.57;;;7.93;;
52838;SDS011;39219;53.678;9.856;2023-05-06T12:14:27;13.88;;;7.78;;
52838;SDS011;39219;53.678;9.856;2023-05-06T12:16:54;16.55;;;7.85;;
52838;SDS011;39219;53.678;9.856;2023-05-06T12:19:22;15.98;;;8.13;;
52838;SDS011;39219;53.678;9.856;2023-05-06T12:21:49;15.73;;;8.40;;
52838;SDS011;39219;53.678;9.856;2023-05-06T12:24:24;15.63;;;8.32;;
52838;SDS011;39219;53.678;9.856;2023-05-06T12:26:52;15.88;;;8.70;;
52838;SDS011;39219;53.678;9.856;2023-05-06T12:29:20;15.25;;;8.15;;
52838;SDS011;39219;53.678;9.856;2023-05-06T12:31:47;13.38;;;8.00;;
52838;SDS011;39219;53.678;9.856;2023-05-06T12:34:13;17.95;;;8.63;;
52838;SDS011;39219;53.678;9.856;2023-05-06T12:36:43;13.23;;;7.97;;
52838;SDS011;39219;53.678;9.856;2023-05-06T12:39:11;14.77;;;8.55;;
52838;SDS011;39219;53.678;9.856;2023-05-06T12:41:40;16.90;;;8.80;;
52838;SDS011;39219;53.678;9.856;2023-05-06T12:46:57;16.05;;;8.73;;
52838;SDS011;39219;53.678;9.856;2023-05-06T12:49:24;16.52;;;8.48;;
52838;SDS011;39219;53.678;9.856;2023-05-06T12:52:05;16.17;;;8.40;;
52838;SDS011;39219;53.678;9.856;2023-05-06T12:54:33;15.15;;;8.70;;
52838;SDS011;39219;53.678;9.856;2023-05-06T12:56:59;16.80;;;8.95;;
52838;SDS011;39219;53.678;9.856;2023-05-06T12:59:26;15.88;;;8.73;;
52838;SDS011;39219;53.678;9.856;2023-05-06T13:01:52;14.55;;;8.80;;
52838;SDS011;39219;53.678;9.856;2023-05-06T13:04:19;17.20;;;8.77;;
52838;SDS011;39219;53.678;9.856;2023-05-06T13:06:46;16.80;;;9.40;;
52838;SDS011;39219;53.678;9.856;2023-05-06T13:09:14;18.38;;;9.43;;
52838;SDS011;39219;53.678;9.856;2023-05-06T13:11:40;16.95;;;9.27;;
52838;SDS011;39219;53.678;9.856;2023-05-06T13:14:07;17.05;;;9.27;;
52838;SDS011;39219;53.678;9.856;2023-05-06T13:16:34;16.02;;;9.10;;
52838;SDS011;39219;53.678;9.856;2023-05-06T13:19:01;17.08;;;9.20;;
52838;SDS011;39219;53.678;9.856;2023-05-06T13:21:28;18.23;;;9.73;;
52838;SDS011;39219;53.678;9.856;2023-05-06T13:23:56;17.75;;;9.13;;
52838;SDS011;39219;53.678;9.856;2023-05-06T13:26:23;15.27;;;8.57;;
52838;SDS011;39219;53.678;9.856;2023-05-06T13:28:50;14.95;;;8.55;;
52838;SDS011;39219;53.678;9.856;2023-05-06T13:31:17;16.05;;;8.63;;
52838;SDS011;39219;53.678;9.856;2023-05-06T13:33:43;14.90;;;8.15;;
52838;SDS011;39219;53.678;9.856;2023-05-06T13:36:10;14.45;;;8.23;;
52838;SDS011;39219;53.678;9.856;2023-05-06T13:38:36;15.00;;;7.88;;
52838;SDS011;39219;53.678;9.856;2023-05-06T13:41:03;13.02;;;7.72;;
52838;SDS011;39219;53.678;9.856;2023-05-06T13:43:32;12.93;;;8.52;;
52838;SDS011;39219;53.678;9.856;2023-05-06T13:45:59;14.15;;;8.00;;
52838;SDS011;39219;53.678;9.856;2023-05-06T13:48:25;14.68;;;7.55;;
52838;SDS011;39219;53.678;9.856;2023-05-06T13:50:52;15.30;;;8.40;;
52838;SDS011;39219;53.678;9.856;2023-05-06T13:53:18;14.55;;;8.10;;
52838;SDS011;39219;53.678;9.856;2023-05-06T13:55:45;14.82;;;8.70;;
52838;SDS011;39219;53.678;9.856;2023-05-06T13:58:12;15.18;;;8.57;;
52838;SDS011;39219;53.678;9.856;2023-05-06T14:00:39;19.30;;;8.90;;
52838;SDS011;39219;53.678;9.856;2023-05-06T14:03:06;14.95;;;8.48;;
52838;SDS011;39219;53.678;9.856;2023-05-06T14:05:32;18.13;;;9.52;;
52838;SDS011;39219;53.678;9.856;2023-05-06T14:07:59;15.57;;;9.77;;
52838;SDS011;39219;53.678;9.856;2023-05-06T14:10:25;16.55;;;9.13;;
52838;SDS011;39219;53.678;9.856;2023-05-06T14:12:52;17.77;;;10.05;;
52838;SDS011;39219;53.678;9.856;2023-05-06T14:15:18;19.02;;;10.30;;
52838;SDS011;39219;53.678;9.856;2023-05-06T14:17:46;19.10;;;10.55;;
52838;SDS011;39219;53.678;9.856;2023-05-06T14:20:13;18.52;;;10.05;;
52838;SDS011;39219;53.678;9.856;2023-05-06T14:22:39;18.65;;;10.02;;
52838;SDS011;39219;53.678;9.856;2023-05-06T14:25:07;19.88;;;10.02;;
52838;SDS011;39219;53.678;9.856;2023-05-06T14:27:34;19.83;;;10.40;;
52838;SDS011;39219;53.678;9.856;2023-05-06T14:30:01;18.15;;;9.80;;
52838;SDS011;39219;53.678;9.856;2023-05-06T14:32:29;17.88;;;9.70;;
52838;SDS011;39219;53.678;9.856;2023-05-06T14:34:57;17.88;;;10.57;;
52838;SDS011;39219;53.678;9.856;2023-05-06T14:37:23;18.27;;;9.75;;
52838;SDS011;39219;53.678;9.856;2023-05-06T14:39:50;18.15;;;9.73;;
52838;SDS011;39219;53.678;9.856;2023-05-06T14:42:17;16.60;;;10.18;;
52838;SDS011;39219;53.678;9.856;2023-05-06T14:44:43;17.52;;;10.35;;
52838;SDS011;39219;53.678;9.856;2023-05-06T14:47:12;19.88;;;10.18;;
52838;SDS011;39219;53.678;9.856;2023-05-06T14:49:39;16.13;;;9.75;;